Date,TemperatureHighF,TemperatureAvgF,TemperatureLowF,DewpointHighF,DewpointAvgF,DewpointLowF,HumidityHigh,HumidityAvg,HumidityLow,PressureMaxIn,PressureMinIn,WindSpeedMaxMPH,WindSpeedAvgMPH,GustSpeedMaxMPH,PrecipitationSumIn
2012-1-1,49.7,45.2,41.2,39.6,35.1,31.5,77,67,61,30.22,30.06,5,1,5,0.00
2012-1-2,48.4,42.6,36.0,46.1,38.1,30.6,93,84,68,30.25,29.89,16,2,16,0.52
2012-1-3,51.7,46.7,42.7,48.5,44.4,40.3,94,91,88,30.29,30.16,8,1,8,0.06
2012-1-4,50.8,47.5,41.4,49.1,45.0,39.5,95,91,78,30.17,30.03,9,2,9,0.93
2012-1-5,47.2,42.5,35.5,45.5,39.9,33.1,94,90,87,30.37,30.17,12,2,12,0.14
2012-1-6,40.7,38.3,35.5,38.6,36.5,33.3,94,93,90,30.35,30.28,5,1,5,0.07
2012-1-7,43.7,40.8,37.6,42.1,39.0,36.0,95,93,90,30.45,30.33,10,1,10,0.01
2012-1-8,51.1,44.7,39.1,45.3,41.2,37.2,93,88,74,30.38,30.22,8,2,9,0.00
2012-1-9,49.1,45.7,42.3,45.4,42.4,40.4,94,88,83,30.28,30.21,11,2,11,0.24
2012-1-10,42.8,39.3,36.0,40.5,36.3,31.0,94,89,79,30.52,30.28,8,2,8,0.04
2012-1-11,42.7,36.3,34.9,34.2,31.5,28.5,88,83,77,30.51,29.91,10,3,10,0.55
2012-1-12,42.8,37.0,32.0,37.8,33.0,28.9,93,85,78,30.37,30.27,8,2,8,0.00
2012-1-13,42.1,35.3,30.1,38.5,33.0,27.8,95,91,85,30.31,30.03,6,1,6,0.00
2012-1-14,40.0,36.9,32.8,38.4,34.4,30.2,95,91,84,30.04,29.88,21,4,21,1.52
2012-1-15,34.9,32.6,29.9,33.3,30.7,27.9,94,93,91,30.05,29.92,8,2,9,0.00
2012-1-16,35.5,32.7,29.9,33.2,31.0,28.1,95,94,92,30.07,29.89,13,4,13,0.00
2012-1-17,40.0,33.4,29.9,35.6,31.4,27.6,96,93,86,29.92,29.75,15,3,15,0.00
2012-1-18,32.0,30.3,27.9,30.1,28.7,26.1,95,94,90,29.91,29.55,5,0,5,0.00
2012-1-19,31.0,29.7,27.7,29.3,28.1,25.9,95,94,93,29.73,29.50,0,0,0,0.00
2012-1-20,43.9,35.5,31.0,43.1,34.3,29.4,97,95,94,29.71,28.99,6,1,6,0.00
2012-1-21,46.1,40.8,36.7,45.1,38.5,34.5,97,92,87,29.85,28.96,20,6,20,0.00
2012-1-22,42.8,38.4,32.6,41.5,36.3,30.5,95,92,87,29.85,29.37,16,3,16,0.00
2012-1-23,38.5,36.2,33.3,36.5,34.7,31.7,96,94,94,29.91,29.76,11,3,11,0.00
2012-2-3,66.4,50.0,38.3,33.4,30.0,26.4,62,47,34,30.13,30.05,4,1,4,0.00
2012-2-4,52.0,42.4,33.8,35.5,30.0,24.3,75,62,51,30.17,30.10,4,1,4,0.00
2012-2-5,50.6,42.7,33.5,39.4,33.2,26.0,79,69,57,30.22,30.11,6,2,6,0.00
2012-2-6,53.6,47.4,36.9,39.0,33.4,26.8,80,60,42,30.10,29.89,13,3,13,0.00
2012-2-7,57.6,49.0,40.3,37.5,32.4,28.2,72,53,42,30.00,29.84,5,2,5,0.00
2012-2-8,47.9,45.2,40.9,45.2,41.8,36.6,91,88,74,30.25,30.01,4,1,4,0.22
2012-2-9,49.9,46.6,43.2,47.3,44.3,41.0,93,92,91,30.26,30.01,3,1,3,0.19
2012-2-10,51.8,46.8,43.6,50.1,44.9,41.5,95,93,92,30.04,29.90,12,2,12,0.09
2012-2-11,47.9,44.6,42.1,43.8,41.9,40.0,93,90,83,30.14,30.03,11,3,11,0.01
2012-2-12,47.9,43.7,41.4,42.9,40.5,39.2,93,89,80,30.11,29.88,8,1,8,0.04
2012-2-13,47.5,43.3,41.6,44.9,41.2,39.7,94,92,88,30.05,29.91,6,1,6,0.25
2012-2-14,44.8,40.1,34.6,42.2,38.2,32.8,95,93,88,30.18,29.89,10,2,10,0.24
2012-2-15,44.3,38.0,33.5,42.2,36.1,31.4,96,93,88,30.38,30.17,10,2,10,0.00
2012-2-16,44.3,42.0,35.6,42.7,40.4,33.8,95,94,93,30.29,30.19,9,2,9,0.07
2012-2-17,48.8,43.9,41.4,47.7,42.5,39.9,96,95,93,30.24,29.81,17,2,17,0.58
2012-2-18,44.5,40.6,38.0,42.7,39.0,36.4,96,94,92,30.04,29.89,20,7,20,0.03
2012-2-19,45.4,40.0,33.8,41.0,36.3,30.8,93,87,78,30.07,29.89,17,3,17,0.00
2012-2-20,46.3,41.0,33.1,44.9,38.8,30.5,95,92,87,29.99,29.84,12,2,12,0.09
2012-2-21,50.6,48.4,46.3,48.7,46.7,44.9,96,94,91,30.07,29.96,22,7,22,0.08
2012-2-22,50.9,46.2,36.5,47.2,41.6,32.9,94,84,71,30.29,29.91,22,6,22,0.02
2012-2-23,48.6,41.9,35.6,42.1,37.4,32.7,91,84,73,30.37,30.26,11,2,11,0.00
2012-2-24,44.5,42.0,40.0,41.3,38.9,36.2,93,89,84,30.26,29.57,13,3,13,0.44
2012-2-25,45.7,40.1,36.4,40.1,35.6,32.0,94,84,72,30.15,29.57,27,8,27,0.02
2012-2-26,42.1,37.7,33.1,37.3,32.4,26.6,88,81,73,30.16,30.09,12,3,12,0.00
2012-2-27,41.4,35.8,31.1,32.4,28.1,25.4,83,74,63,30.17,29.94,13,3,13,0.00
2012-2-28,42.3,36.5,30.6,37.1,32.2,27.0,92,84,71,29.94,29.42,13,2,13,0.19
2012-2-29,39.8,37.0,34.2,38.0,34.7,31.4,94,92,87,29.76,29.48,19,5,19,0.31
2012-3-1,43.4,38.0,32.4,39.9,35.3,30.3,94,90,84,30.31,29.75,12,2,12,0.00
2012-3-2,43.9,41.2,36.0,41.1,38.6,33.8,92,90,85,30.38,30.30,13,4,13,0.03
2012-3-3,54.9,48.4,43.6,48.3,44.3,41.1,93,86,75,30.35,30.28,20,6,20,0.00
2012-3-4,51.3,47.4,44.8,45.0,42.9,40.9,91,84,76,30.32,29.98,12,4,12,0.00
2012-3-5,45.9,41.7,34.4,42.4,35.6,29.3,93,79,64,29.96,29.69,20,7,20,0.53
2012-3-6,44.1,36.5,29.7,39.2,30.9,26.3,90,80,67,30.33,29.85,10,2,10,0.11
2012-3-7,46.3,38.0,28.4,38.6,30.2,25.2,91,74,52,30.46,30.32,6,2,6,0.00
2012-3-8,57.2,45.2,36.0,44.3,37.7,30.1,86,75,61,30.35,30.13,13,3,13,0.00
2012-3-9,49.1,45.2,40.7,44.4,41.3,36.7,91,86,80,30.21,29.94,9,2,9,0.25
2012-3-10,46.3,44.2,42.5,43.9,42.1,40.3,94,92,91,29.95,29.61,10,2,10,0.54
2012-3-11,43.7,40.0,37.8,42.1,37.4,34.5,95,91,84,29.76,29.57,13,3,13,0.43
2012-3-12,45.5,41.7,36.0,41.3,36.9,33.8,92,83,72,29.65,29.31,18,4,18,0.61
2012-3-13,41.2,36.3,34.0,38.8,34.3,32.2,94,93,87,29.85,29.35,17,4,17,0.29
2012-3-14,44.6,39.3,34.4,43.0,37.4,31.9,95,93,89,29.85,29.65,17,2,17,0.63
2012-3-15,51.5,46.2,42.7,49.6,44.6,41.0,95,94,92,29.66,29.45,16,4,16,1.23
2012-3-16,48.1,42.8,39.6,45.9,40.8,37.8,95,93,87,29.69,29.33,15,3,15,0.42
2012-3-17,47.9,41.0,35.8,44.0,38.1,33.8,95,89,79,29.64,29.31,13,2,13,0.47
2012-3-18,40.9,37.3,31.7,39.0,35.3,29.7,94,92,90,29.83,29.59,10,1,10,0.04
2012-3-19,45.2,37.5,29.5,40.2,34.5,27.7,95,89,81,29.88,29.63,12,2,12,0.07
2012-3-20,46.1,41.0,36.0,42.3,38.3,33.8,94,90,84,29.95,29.48,20,6,20,0.28
2012-3-21,46.8,40.4,33.5,42.2,35.7,31.6,95,84,64,30.00,29.78,10,2,10,0.01
2012-3-22,48.4,41.2,35.5,43.6,36.4,32.3,93,83,68,30.02,29.79,9,2,9,0.14
2012-3-23,51.5,41.9,31.1,44.1,35.1,28.4,93,78,55,30.03,29.93,8,2,8,0.00
2012-3-24,53.5,46.1,40.0,43.7,37.8,33.8,83,73,59,30.02,29.86,13,3,13,0.00
2012-3-25,52.9,46.2,38.7,44.6,39.1,32.9,86,76,65,29.86,29.69,21,2,21,0.00
2012-3-26,52.6,46.8,42.1,43.9,40.3,34.9,89,79,57,29.81,29.70,13,3,14,0.03
2012-3-27,56.0,47.6,42.3,47.3,42.9,36.1,91,84,70,29.71,29.47,12,1,12,0.16
2012-3-28,52.2,47.3,44.3,45.1,41.9,39.2,89,82,70,29.77,29.53,20,6,20,0.17
2012-3-29,46.6,44.8,42.5,44.8,42.5,40.6,94,92,82,29.64,29.41,14,3,14,1.84
2012-3-30,50.4,44.8,40.1,47.7,42.1,37.3,95,91,83,29.74,29.44,20,4,20,0.30
2012-3-31,45.0,41.2,37.6,42.8,39.2,35.6,95,93,91,29.69,29.38,14,2,14,0.45
2012-4-1,48.8,44.1,40.0,44.6,40.7,37.3,95,88,80,30.17,29.47,17,5,17,0.08
2012-4-2,60.8,49.4,38.0,46.2,41.6,35.2,92,76,51,30.22,29.86,10,2,10,0.00
2012-4-3,48.1,44.6,35.6,44.4,40.3,32.9,90,85,79,29.97,29.72,17,3,17,0.23
2012-4-4,50.6,41.3,36.0,46.1,37.5,33.3,94,87,67,30.08,29.93,6,2,6,0.00
2012-4-5,51.1,42.8,36.9,44.9,38.6,33.7,92,85,71,30.15,30.08,8,2,8,0.18
2012-4-6,52.0,42.8,35.5,45.6,36.9,31.0,93,81,60,30.28,30.14,9,2,9,0.00
2012-4-7,55.1,45.0,33.1,44.0,37.6,29.4,92,76,59,30.28,30.12,10,2,10,0.00
2012-4-8,54.4,46.8,43.4,38.7,36.7,34.5,72,68,53,30.15,29.96,6,1,6,0.00
2012-4-9,62.5,53.7,41.0,45.6,39.9,34.0,80,60,48,29.98,29.81,9,2,9,0.00
2012-4-10,65.5,54.9,47.5,51.0,44.5,35.6,82,69,53,29.81,29.69,13,3,13,0.00
2012-4-11,53.5,50.1,46.6,50.3,46.0,43.5,91,86,74,29.78,29.65,10,2,10,0.14
2012-4-12,58.0,48.9,42.1,51.2,43.5,38.0,94,82,66,29.81,29.68,18,3,18,0.00
2012-4-13,54.4,47.8,41.2,48.1,41.6,36.5,91,80,64,29.89,29.79,13,3,13,0.00
2012-4-14,59.4,48.2,37.4,49.1,41.9,33.8,91,79,64,30.13,29.89,11,3,11,0.00
2012-4-15,59.4,50.8,45.4,47.4,43.0,40.6,84,75,58,30.18,29.98,7,2,7,0.00
2012-4-16,56.5,49.9,42.8,50.9,45.0,38.5,93,83,72,30.18,29.85,17,4,17,0.43
2012-4-17,50.8,44.1,35.8,44.8,40.3,32.9,92,86,76,30.20,29.95,5,1,5,0.13
2012-4-18,55.8,48.9,44.1,51.0,44.1,39.4,94,84,69,30.06,29.91,14,3,14,0.16
2012-4-19,55.8,47.2,36.9,50.3,43.5,33.9,94,87,73,30.07,29.97,13,2,13,0.61
2012-4-20,52.6,48.4,42.5,49.8,45.5,39.7,94,90,81,30.24,30.00,14,2,14,0.17
2012-4-21,60.1,50.9,40.9,50.2,44.3,38.4,92,79,64,30.18,29.98,8,2,8,0.00
2012-4-22,65.5,58.1,46.1,51.6,47.3,41.6,85,68,57,29.99,29.85,12,3,12,0.00
2012-4-23,65.0,56.7,47.5,54.5,48.7,42.5,86,75,64,29.90,29.79,13,3,13,0.00
2012-4-24,56.0,53.0,48.8,50.9,48.4,44.7,91,85,79,29.91,29.80,13,2,13,0.01
2012-4-25,62.1,54.1,49.1,58.7,51.3,46.9,92,90,85,29.81,29.60,11,2,11,0.49
2012-4-26,57.8,49.7,42.8,50.1,45.0,39.6,94,85,57,30.02,29.58,18,4,18,0.13
2012-4-27,57.1,48.8,41.9,47.4,43.2,39.2,91,81,64,30.27,30.02,14,4,14,0.04
2012-4-28,62.5,54.4,46.6,52.1,47.9,43.5,91,79,67,30.27,30.17,9,2,9,0.00
2012-4-29,60.7,55.4,49.7,52.2,49.3,45.6,88,80,72,30.18,29.78,9,2,9,0.09
2012-4-30,54.9,49.4,44.3,51.4,45.9,40.7,94,88,79,29.89,29.63,20,6,20,0.39
2012-5-1,56.2,47.8,42.5,47.3,42.3,38.3,89,82,68,29.96,29.89,16,5,16,0.03
2012-5-2,57.8,49.1,40.9,47.7,41.1,37.5,89,75,56,29.99,29.75,10,2,10,0.00
2012-5-3,51.5,47.4,44.5,49.1,44.5,41.0,93,90,78,29.92,29.58,12,2,12,0.81
2012-5-4,56.0,47.0,39.6,47.6,42.8,37.1,92,85,67,30.33,29.92,13,4,13,0.23
2012-5-5,56.5,47.1,36.5,49.3,42.0,34.1,94,83,68,30.48,30.33,8,2,8,0.01
2012-5-6,59.0,48.8,38.5,48.0,41.0,35.8,93,76,56,30.48,30.35,7,2,7,0.00
2012-5-7,67.3,58.0,44.6,51.9,46.6,38.0,84,66,51,30.36,30.08,8,2,8,0.00
2012-5-8,67.1,54.4,46.8,53.4,46.3,41.1,86,75,59,30.14,30.08,11,3,11,0.00
2012-5-9,57.1,48.6,43.7,43.2,39.6,36.5,80,71,54,30.34,30.14,11,2,11,0.00
2012-5-10,57.2,48.3,37.3,42.6,36.0,31.6,85,64,44,30.42,30.31,9,2,9,0.00
2012-5-11,60.3,51.3,39.6,45.9,39.3,33.9,83,65,50,30.32,30.17,12,3,12,0.00
2012-5-12,68.2,57.3,45.7,47.8,41.8,36.0,71,57,41,30.21,30.10,10,3,10,0.00
2012-5-13,67.5,56.5,50.4,48.3,41.9,39.1,68,58,50,30.17,30.04,10,2,10,0.00
2012-5-14,70.9,61.4,52.2,50.0,45.1,41.3,71,56,40,30.05,29.97,12,4,12,0.00
2012-5-15,70.2,60.5,49.5,56.0,48.5,40.7,85,66,48,30.10,30.01,9,3,9,0.00
2012-5-16,69.1,58.2,45.0,51.0,44.0,37.2,79,60,49,30.09,30.01,12,3,12,0.00
2012-5-17,62.3,52.9,43.7,48.2,42.8,36.8,82,69,47,30.06,29.97,10,2,10,0.06
2012-5-18,59.4,48.1,44.6,44.7,41.1,37.9,81,77,55,30.17,30.04,10,2,10,0.00
2012-5-19,64.6,53.5,40.3,50.6,42.4,35.7,88,68,43,30.11,30.01,6,2,7,0.00
2012-5-20,59.6,54.9,51.5,55.9,48.6,41.4,90,79,65,30.02,29.92,6,1,6,0.26
2012-5-21,60.7,55.5,50.6,58.5,53.0,48.0,93,91,89,29.92,29.78,13,2,13,0.64
2012-5-22,55.6,51.1,47.5,52.6,48.3,45.3,93,90,86,29.92,29.84,12,3,12,0.23
2012-5-23,58.5,51.4,47.5,52.6,46.6,42.8,92,84,71,29.99,29.90,15,4,15,0.02
2012-5-24,59.4,52.3,46.4,49.7,45.4,42.5,88,78,60,29.96,29.78,10,2,10,0.00
2012-5-25,65.9,55.2,42.1,53.1,46.8,38.2,90,74,55,29.89,29.83,13,3,13,0.00
2012-5-26,72.2,59.0,45.5,58.5,49.8,41.6,90,73,51,29.95,29.84,14,3,14,0.00
2012-5-27,64.4,57.2,52.6,52.2,48.2,46.1,80,72,59,30.05,29.94,12,2,12,0.00
2012-5-28,65.7,56.5,49.7,51.9,46.8,41.3,87,71,53,30.11,30.02,14,3,14,0.00
2012-5-29,62.3,54.3,43.0,48.5,43.9,37.3,84,69,53,30.15,30.11,8,2,8,0.00
2012-5-30,66.8,57.9,50.2,51.0,47.1,43.8,80,68,52,30.23,30.12,7,1,7,0.01
2012-5-31,64.1,58.9,54.0,58.6,54.3,48.3,92,85,78,30.13,29.98,10,2,10,0.03
2012-6-1,67.1,60.8,54.0,64.1,57.3,50.6,94,88,79,29.98,29.87,15,3,15,0.39
2012-6-2,67.3,57.6,50.4,58.2,50.1,41.8,92,77,58,29.96,29.85,14,3,14,0.01
2012-6-3,63.5,55.0,48.6,49.4,44.7,42.1,81,69,52,29.98,29.87,10,2,10,0.00
2012-6-4,55.1,51.6,48.2,50.1,46.1,41.6,87,81,70,29.87,29.73,8,2,8,0.04
2012-6-5,61.2,52.5,47.2,54.7,47.7,41.9,93,84,64,30.19,29.80,18,3,18,0.64
2012-6-6,65.5,53.5,41.8,50.7,45.1,38.2,90,74,55,30.18,29.97,12,2,12,0.00
2012-6-7,58.7,52.4,49.0,55.9,48.4,42.7,93,86,77,29.97,29.78,18,2,18,0.80
2012-6-8,59.4,51.7,46.4,52.6,47.2,43.0,92,85,70,30.03,29.92,12,2,12,0.08
2012-6-9,64.4,54.4,47.2,53.6,47.9,43.8,91,79,64,30.21,30.02,15,3,15,0.00
2012-6-10,62.3,55.5,50.2,51.7,47.7,45.1,84,75,64,30.26,30.19,10,2,10,0.00
2012-6-11,72.5,61.8,50.4,55.7,49.9,44.7,84,66,47,30.19,30.05,8,2,8,0.00
2012-6-12,66.8,60.0,55.1,59.6,53.1,46.6,87,78,71,30.05,29.97,13,2,13,0.01
2012-6-13,62.5,55.9,52.6,51.7,48.8,46.6,85,77,64,30.16,30.01,8,3,12,0.00
2012-6-14,63.4,55.5,49.7,52.5,47.6,44.4,83,75,63,30.14,30.09,14,2,14,0.00
2012-6-15,71.3,61.2,47.0,55.2,49.4,41.8,88,66,49,30.18,30.12,7,2,7,0.00
2012-6-16,72.9,64.2,58.9,64.9,57.7,51.1,87,80,72,30.13,29.93,14,3,14,0.00
2012-6-17,71.1,61.3,53.1,59.2,53.7,47.0,88,77,59,29.94,29.86,20,5,20,0.00
2012-6-18,64.6,56.5,52.2,55.6,49.5,45.9,89,78,63,30.02,29.82,13,3,13,0.02
2012-6-19,65.2,56.5,51.1,55.4,49.3,45.5,87,77,63,30.15,30.01,8,2,9,0.00
2012-6-20,70.9,60.5,49.5,55.9,49.7,44.4,87,69,52,30.15,29.90,11,2,11,0.00
2012-6-21,71.5,62.2,51.1,55.4,50.8,44.5,82,67,52,29.93,29.75,8,2,8,0.00
2012-6-22,58.1,55.7,53.1,53.6,50.8,47.2,90,84,73,29.80,29.69,8,1,8,0.19
2012-6-23,57.4,54.5,49.7,55.5,51.9,47.2,93,91,88,29.94,29.69,12,2,12,0.25
2012-6-24,66.6,56.4,46.1,55.8,49.9,43.9,94,80,60,30.04,29.91,10,2,10,0.00
2012-6-25,66.2,57.9,49.0,55.2,50.2,44.3,88,76,66,30.02,29.92,12,2,12,0.00
2012-6-26,67.0,58.3,51.3,54.0,49.5,43.8,86,74,58,30.05,29.90,14,3,14,0.00
2012-6-27,69.7,59.2,45.7,55.3,46.7,41.4,89,65,46,30.05,29.89,6,2,6,0.00
2012-6-28,74.5,63.0,50.8,56.4,51.3,43.8,79,67,51,30.01,29.88,11,2,11,0.00
2012-6-29,70.4,62.8,58.7,62.6,57.4,53.3,89,83,73,30.06,29.99,11,2,11,0.03
2012-6-30,68.6,62.8,56.7,64.0,58.8,52.6,92,87,80,30.00,29.90,11,2,11,0.06
2012-7-1,66.8,60.1,55.6,55.7,53.2,50.6,87,79,66,30.05,29.95,12,1,12,0.00
2012-7-2,67.5,58.7,52.7,56.0,51.7,48.2,86,78,63,30.02,29.86,10,2,10,0.05
2012-7-3,67.0,58.1,51.3,56.3,51.1,45.2,92,78,65,30.12,29.82,22,4,22,0.30
2012-7-4,68.0,58.4,49.0,52.6,47.9,43.8,88,69,51,30.12,29.95,11,2,11,0.00
2012-7-5,72.4,61.6,48.6,54.0,48.0,42.3,82,62,48,30.02,29.96,8,2,8,0.00
2012-7-6,75.2,63.3,49.9,58.2,51.4,43.4,82,66,52,30.10,30.00,8,2,8,0.00
2012-7-7,75.1,63.7,52.0,57.6,52.1,45.9,82,67,52,30.14,30.01,10,2,10,0.00
2012-7-8,78.8,67.3,54.2,60.5,55.0,47.6,83,66,49,30.07,29.95,9,2,9,0.00
2012-7-9,74.3,64.4,56.7,62.6,56.1,50.9,84,75,64,30.11,30.01,9,2,9,0.00
2012-7-10,68.4,60.6,54.7,59.2,53.8,49.1,86,79,70,30.19,30.05,7,2,8,0.00
2012-7-11,77.6,66.2,54.7,63.4,57.0,49.8,87,73,60,30.07,29.95,6,2,6,0.00
2012-7-12,79.4,66.3,57.4,65.0,57.6,52.6,87,74,57,29.99,29.93,12,3,12,0.00
2012-7-13,73.4,63.9,58.0,63.2,57.0,53.1,85,79,66,30.04,29.93,8,2,8,0.00
2012-7-14,77.4,67.1,59.8,67.3,60.2,55.4,88,79,65,29.97,29.90,11,2,11,0.00
2012-7-15,64.6,60.6,57.1,56.9,54.9,52.6,87,82,74,29.93,29.87,13,3,13,0.00
2012-7-16,74.2,64.7,56.5,61.8,57.4,52.8,91,78,62,29.93,29.77,11,2,11,0.01
2012-7-17,72.4,64.8,59.2,63.5,58.7,54.3,86,81,74,29.91,29.77,12,2,12,0.00
2012-7-18,72.0,63.7,58.3,61.7,57.0,53.8,86,79,69,30.04,29.90,11,3,11,0.00
2012-7-19,74.2,67.1,58.3,61.3,58.0,53.6,86,73,61,30.05,29.89,10,2,10,0.00
2012-7-20,66.6,62.1,57.8,62.6,57.9,54.7,93,86,79,30.18,29.92,16,3,16,0.46
2012-7-21,75.2,65.4,58.3,64.5,57.4,51.8,91,76,57,30.18,30.05,12,2,12,0.00
2012-7-22,68.2,60.4,55.4,57.4,52.7,49.3,83,76,62,30.13,30.05,16,2,16,0.00
2012-7-23,69.5,59.9,52.2,58.3,52.8,47.3,86,78,66,30.20,30.13,12,2,12,0.00
2012-7-24,71.5,61.7,53.3,58.6,53.1,49.5,89,74,59,30.15,29.99,11,2,11,0.00
2012-7-25,75.6,65.7,54.7,61.6,55.8,49.0,83,71,59,30.01,29.89,10,2,10,0.00
2012-7-26,77.6,65.3,56.9,64.7,57.7,52.8,88,77,61,29.97,29.89,11,3,11,0.00
2012-7-27,66.8,60.7,57.1,59.1,55.0,52.7,87,82,74,30.10,29.94,8,2,8,0.00
2012-7-28,68.0,62.4,57.8,58.9,55.9,52.8,86,79,69,30.15,30.09,6,1,6,0.00
2012-7-29,73.8,63.5,57.1,61.6,55.9,52.2,86,77,61,30.16,30.08,8,1,8,0.00
2012-7-30,68.0,61.6,55.1,58.8,54.4,50.0,85,77,69,30.15,30.10,9,2,9,0.00
2012-7-31,70.6,62.2,56.3,58.8,54.1,50.8,84,75,63,30.16,30.12,8,2,8,0.00
2012-8-1,73.3,64.0,51.5,60.4,54.6,46.8,85,72,61,30.20,30.13,9,2,9,0.00
2012-8-2,70.9,62.3,53.3,59.8,54.1,48.0,85,75,64,30.18,30.09,7,2,7,0.00
2012-8-3,75.2,64.8,55.1,61.6,56.1,50.9,89,74,61,30.12,29.96,12,2,12,0.00
2012-8-4,81.7,71.8,60.8,63.5,59.2,53.9,79,65,52,29.97,29.82,12,3,12,0.00
2012-8-5,87.5,75.8,62.1,67.1,60.9,54.7,79,61,48,29.98,29.85,10,2,10,0.00
2012-8-6,79.9,67.6,61.2,65.5,58.6,54.3,81,73,59,30.09,29.98,13,2,13,0.00
2012-8-7,70.0,64.1,59.4,62.2,58.1,53.3,85,81,76,30.09,30.02,9,2,9,0.00
2012-8-8,71.5,64.9,59.0,59.5,56.0,53.1,83,73,63,30.21,30.06,13,2,13,0.00
2012-8-9,71.5,64.8,57.2,60.5,55.5,52.1,86,72,61,30.20,30.08,10,2,10,0.00
2012-8-10,76.5,65.6,53.5,60.8,55.2,48.6,85,70,54,30.12,30.03,8,2,8,0.00
2012-8-11,77.9,66.8,54.5,62.1,55.9,49.4,86,69,51,30.08,29.96,10,2,10,0.00
2012-8-12,79.2,69.2,57.2,62.5,56.9,50.8,81,66,54,29.99,29.91,12,2,12,0.00
2012-8-13,79.9,68.6,57.2,62.5,56.3,50.8,82,66,52,30.02,29.94,8,2,8,0.00
2012-8-14,80.3,67.5,56.0,62.7,56.8,49.1,81,69,54,29.99,29.87,12,2,12,0.00
2012-8-15,78.5,69.5,59.2,62.8,57.0,52.4,87,66,49,29.94,29.84,14,3,14,0.00
2012-8-16,87.1,74.7,63.0,62.4,56.2,51.1,66,53,39,29.94,29.86,9,2,9,0.00
2012-8-17,83.9,72.8,59.9,64.9,59.0,52.9,80,63,47,29.96,29.88,6,2,6,0.00
2012-8-18,68.4,64.2,60.7,60.6,57.9,55.1,85,80,72,29.97,29.86,13,2,13,0.00
2012-8-19,70.9,64.4,58.3,59.5,56.5,51.5,85,76,64,30.02,29.93,8,2,8,0.00
2012-8-20,74.9,64.8,56.2,61.1,55.3,50.7,86,72,58,30.04,29.92,6,2,6,0.00
2012-8-21,73.8,63.1,55.1,60.8,54.1,49.0,85,73,55,30.02,29.95,10,2,10,0.00
2012-8-22,72.7,62.0,55.4,59.7,53.3,49.7,85,73,59,30.10,30.02,7,1,7,0.00
2012-8-23,70.4,60.3,52.2,57.3,51.3,44.9,81,72,58,30.10,30.02,11,2,11,0.00
2012-8-24,69.7,58.4,46.1,54.9,47.8,41.6,87,69,50,30.19,29.99,10,2,10,0.00
2012-8-25,72.4,62.4,53.1,55.5,51.0,47.1,85,67,52,29.99,29.72,11,3,11,0.00
2012-8-26,72.7,62.5,53.6,58.2,52.3,47.6,83,70,59,29.94,29.73,13,3,13,0.00
2012-8-27,76.7,65.8,52.9,59.9,52.8,47.1,87,64,47,30.04,29.94,13,2,13,0.00
2012-8-28,76.3,64.2,55.4,58.0,51.1,47.1,80,64,45,30.06,29.99,16,3,16,0.00
2012-8-29,76.0,63.9,56.2,59.0,53.3,49.0,83,69,53,30.12,30.04,10,2,10,0.00
2012-8-30,73.4,62.2,55.1,59.2,52.6,48.3,86,72,53,30.04,29.87,10,2,10,0.00
2012-8-31,70.6,60.2,49.1,55.6,49.6,43.5,84,69,57,29.98,29.90,8,2,8,0.00
2012-9-1,72.2,59.4,48.8,57.4,49.6,43.5,86,71,52,30.12,29.97,8,2,8,0.00
2012-9-2,67.3,57.1,48.1,54.7,48.4,42.8,86,73,59,30.18,30.11,6,1,6,0.00
2012-9-3,68.2,60.0,53.1,57.2,52.0,46.9,86,75,65,30.17,30.10,10,2,10,0.00
2012-9-4,70.4,61.6,51.1,58.4,52.5,45.8,85,72,62,30.19,30.08,10,2,10,0.00
2012-9-5,75.4,63.6,50.8,59.1,53.2,46.1,86,70,53,30.09,29.91,10,2,10,0.00
2012-9-6,74.7,65.2,57.1,58.6,52.8,50.4,84,65,50,30.03,29.93,11,3,11,0.00
2012-9-7,82.6,69.1,57.2,57.3,52.4,47.2,71,56,39,30.12,30.01,8,2,8,0.00
2012-9-8,79.9,66.2,55.1,60.4,53.8,47.4,78,65,50,30.02,29.90,14,3,14,0.00
2012-9-9,66.1,60.8,58.0,55.2,52.3,49.5,84,74,66,30.01,29.94,13,3,13,0.00
2012-9-10,66.2,58.6,52.6,54.1,50.0,45.2,87,74,55,30.20,29.94,12,2,12,0.02
2012-9-11,67.0,56.4,46.4,52.1,45.3,39.0,84,67,51,30.30,30.19,10,2,10,0.00
2012-9-12,65.9,57.5,49.9,53.5,47.6,42.4,82,70,57,30.33,30.20,12,3,12,0.00
2012-9-13,72.4,62.0,52.9,55.2,48.6,43.0,74,62,50,30.20,30.02,10,3,10,0.00
2012-9-14,73.1,61.7,50.0,54.3,48.0,43.3,79,62,45,30.07,29.99,8,2,8,0.00
2012-9-15,70.9,59.7,51.5,57.4,50.0,44.0,84,71,55,30.15,30.04,6,2,6,0.00
2012-9-16,68.8,59.4,48.2,55.7,50.0,43.3,86,72,58,30.20,30.10,11,2,11,0.00
2012-9-17,73.1,62.2,51.1,58.1,51.0,45.8,86,68,51,30.10,29.98,11,2,11,0.00
2012-9-18,76.9,63.5,50.6,59.2,51.1,44.6,83,65,46,30.07,29.99,7,2,8,0.00
2012-9-19,66.6,59.3,54.4,57.4,52.3,47.6,85,78,67,30.14,30.04,9,2,9,0.00
2012-9-20,66.1,57.4,52.0,57.6,51.9,46.7,89,82,73,30.09,30.01,10,2,10,0.00
2012-9-21,62.3,58.1,55.8,56.1,53.2,51.3,89,84,77,30.12,30.09,8,1,8,0.00
2012-9-22,63.5,58.1,53.5,55.5,52.3,47.5,89,81,72,30.14,30.09,5,1,5,0.00
2012-9-23,66.2,57.5,49.0,54.7,49.4,44.1,87,75,61,30.15,30.09,9,1,9,0.00
2012-9-24,67.7,58.3,48.8,57.5,51.0,44.5,88,77,65,30.12,30.06,9,1,9,0.00
2012-9-25,64.6,58.0,52.2,56.7,51.9,47.2,86,80,71,30.13,30.07,5,1,5,0.00
2012-9-26,63.7,55.3,49.0,55.1,49.2,44.9,90,80,70,30.11,30.03,6,1,6,0.00
2012-9-27,67.7,57.5,48.2,55.6,49.8,43.9,89,76,63,30.05,29.92,10,2,10,0.00
2012-9-28,71.1,60.5,53.8,59.4,52.3,47.0,87,75,61,30.01,29.90,6,2,6,0.00
2012-9-29,63.7,58.4,53.5,54.2,50.5,46.3,84,75,61,30.27,30.01,9,2,9,0.00
2012-9-30,65.5,56.4,47.5,53.5,46.9,41.9,86,71,53,30.38,30.27,10,2,10,0.00
2012-10-1,70.6,59.9,47.7,56.9,50.0,41.7,83,71,54,30.33,30.07,10,2,10,0.00
2012-10-2,60.5,55.0,49.9,50.0,45.3,40.8,82,70,50,30.25,30.12,9,2,9,0.00
2012-10-3,63.0,54.7,49.5,47.2,41.6,35.8,78,62,48,30.35,30.24,15,3,15,0.00
2012-10-4,60.7,54.4,49.5,48.3,42.7,37.5,76,65,54,30.27,30.21,13,3,13,0.00
2012-10-5,65.9,56.3,49.0,48.8,42.1,37.9,71,59,46,30.26,30.18,9,2,9,0.00
2012-10-6,68.8,57.1,47.5,47.5,40.2,36.5,69,54,40,30.21,30.08,9,2,9,0.00
2012-10-7,68.8,57.6,50.4,49.9,42.8,37.0,72,59,44,30.08,29.90,8,2,8,0.00
2012-10-8,70.6,55.9,43.2,51.8,44.4,37.0,82,66,47,30.02,29.90,10,2,10,0.00
2012-10-9,57.6,52.2,47.2,49.9,46.1,41.9,83,80,73,30.11,30.01,6,1,6,0.00
2012-10-10,52.2,49.6,43.6,48.7,46.1,39.6,89,88,83,30.02,29.96,3,1,3,0.01
2012-10-11,54.2,50.3,45.0,48.8,46.0,41.0,88,85,80,29.97,29.78,7,1,7,0.00
2012-10-12,56.3,52.5,46.8,52.0,48.9,43.8,91,87,83,29.97,29.80,14,3,14,0.07
2012-10-13,59.9,56.2,52.6,58.0,53.8,50.0,93,92,90,30.12,29.97,13,4,13,0.34
2012-10-14,61.6,58.6,56.9,58.5,56.3,54.5,94,92,87,30.10,29.84,12,2,12,1.11
2012-10-15,60.5,57.1,52.0,59.0,55.0,49.5,95,93,89,29.93,29.52,14,2,14,0.52
2012-10-16,60.3,53.0,45.0,54.9,47.9,41.7,92,83,69,30.24,29.55,17,4,17,0.00
2012-10-17,56.2,49.9,44.5,50.1,45.3,41.1,91,84,72,30.31,30.17,5,1,5,0.00
2012-10-18,61.0,51.0,42.5,53.1,46.2,39.5,92,84,70,30.18,29.78,13,2,13,0.81
2012-10-19,58.0,54.0,48.6,54.8,51.0,46.0,94,90,82,29.79,29.72,17,4,17,0.15
2012-10-20,52.6,45.8,41.9,46.2,41.8,38.4,91,86,75,29.85,29.76,17,4,17,0.02
2012-10-21,51.1,44.7,40.3,47.0,41.1,36.6,92,87,80,29.84,29.73,10,2,10,0.14
2012-10-22,45.0,43.0,41.2,42.8,40.5,38.5,92,91,89,29.73,29.53,6,1,6,0.27
2012-10-23,50.6,45.1,41.9,46.2,42.0,40.0,93,89,81,29.83,29.60,15,2,15,0.05
2012-10-24,51.3,46.2,43.7,48.2,43.7,41.3,94,91,86,30.12,29.80,9,1,9,0.33
2012-10-25,50.8,45.7,41.4,47.8,43.4,39.2,94,92,89,30.37,30.12,5,1,5,0.00
2012-10-26,50.0,46.4,44.1,48.3,44.6,41.9,95,93,92,30.27,30.01,10,1,11,0.15
2012-10-27,56.2,50.7,49.1,54.7,49.0,47.4,95,94,93,30.02,29.74,13,2,13,0.80
2012-10-28,56.9,54.2,51.5,54.9,52.4,49.3,95,94,92,29.92,29.74,16,2,16,0.19
2012-10-29,59.0,55.4,50.6,56.7,53.6,48.9,95,94,90,30.00,29.71,17,3,17,0.43
2012-10-30,58.5,55.5,52.9,56.9,54.0,51.2,95,95,94,29.94,29.72,7,1,7,1.48
2012-10-31,58.0,55.5,51.7,56.5,54.0,50.0,96,95,94,29.73,29.60,9,1,9,1.05
2012-11-1,56.5,53.2,51.5,55.4,51.8,50.0,96,95,94,29.99,29.68,7,1,9,0.60
2012-11-2,56.7,53.1,49.7,55.1,51.6,48.2,96,95,94,30.01,29.94,5,1,5,0.23
2012-11-3,58.0,54.4,52.2,56.5,53.0,50.5,96,95,95,30.15,29.94,12,2,12,0.11
2012-11-4,61.2,57.6,54.0,60.0,56.3,52.6,96,96,95,30.28,30.14,13,2,13,0.34
2012-11-5,57.6,51.8,46.3,56.2,49.6,44.1,96,92,86,30.37,30.13,10,2,10,0.05
2012-11-6,54.4,49.3,43.7,52.7,47.4,41.9,95,93,91,30.13,29.92,18,2,18,0.01
2012-11-7,51.8,46.0,40.3,47.4,42.8,37.7,94,89,78,30.10,29.91,14,2,14,0.00
2012-11-8,49.1,41.7,36.2,44.7,38.1,32.8,94,87,79,29.91,29.78,12,2,12,0.01
2012-11-9,46.3,37.3,32.8,43.4,34.0,29.2,93,88,83,29.92,29.81,6,2,6,0.00
2012-11-10,43.6,35.4,31.1,39.2,31.5,28.0,92,86,76,30.19,29.92,5,2,5,0.01
2012-11-11,45.7,39.9,32.6,42.2,37.2,29.4,93,90,87,30.20,30.04,4,1,4,0.77
2012-11-12,51.5,47.7,43.9,49.9,46.0,42.0,95,94,92,30.18,30.04,9,2,9,0.18
2012-11-13,50.6,48.9,47.3,49.1,47.6,46.0,95,95,94,30.18,30.10,9,1,9,0.32
2012-11-14,49.9,47.0,42.8,48.2,45.6,41.2,96,95,93,30.29,30.14,6,1,6,0.01
2012-11-15,46.1,43.2,40.7,44.5,41.6,39.1,95,94,93,30.24,29.91,9,2,9,0.00
2012-11-16,45.4,43.1,40.3,44.0,41.7,38.5,95,95,93,29.91,29.66,5,1,5,0.25
2012-11-17,49.0,45.2,42.1,47.9,43.8,40.4,96,95,93,29.68,29.45,15,3,15,0.33
2012-11-18,46.8,44.9,42.5,45.3,43.4,40.7,95,94,93,29.73,29.49,14,2,14,0.72
2012-11-19,53.3,49.1,46.1,51.9,47.8,44.6,96,95,94,29.66,29.32,20,3,20,2.97
2012-11-20,49.3,45.8,42.5,48.1,44.5,41.1,96,95,92,29.67,29.50,19,2,19,0.41
2012-11-21,44.6,42.3,39.4,43.3,40.9,37.8,95,95,94,30.25,29.48,17,4,17,0.88
2012-11-22,44.6,40.6,36.0,43.0,39.1,34.4,96,95,93,30.33,30.17,5,1,5,0.00
2012-11-23,48.8,45.6,41.8,47.7,44.3,40.4,96,95,95,30.20,29.98,11,2,11,1.19
2012-11-24,47.5,42.9,38.2,46.4,41.5,36.5,96,95,94,30.24,30.10,6,1,6,0.02
2012-11-25,44.5,40.4,37.1,43.1,38.8,35.7,96,94,91,30.32,30.17,13,2,13,0.00
2012-11-26,44.6,40.1,36.4,41.7,37.6,33.9,94,91,87,30.19,30.01,10,2,10,0.00
2012-11-27,45.4,39.5,34.4,43.1,37.6,32.5,95,93,91,30.05,29.85,5,1,5,0.00
2012-11-28,43.9,41.5,37.1,42.6,39.9,35.2,95,94,92,29.87,29.57,8,1,8,0.14
2012-11-29,50.8,46.6,42.1,49.4,45.0,40.8,96,94,91,29.68,29.42,10,2,10,0.12
2012-11-30,53.8,48.8,45.9,51.0,47.1,44.3,96,94,85,29.43,29.33,14,2,14,1.24
2012-12-1,51.3,47.5,45.0,47.4,45.1,43.1,96,91,84,29.59,29.24,20,4,20,0.42
2012-12-2,46.8,45.3,43.6,44.7,43.6,41.9,95,94,90,29.77,29.15,17,4,17,0.84
2012-12-3,48.4,46.5,44.3,47.4,45.2,42.8,96,95,94,29.96,29.61,15,2,15,0.61
2012-12-4,50.4,47.4,43.9,49.1,45.9,42.0,96,94,91,29.82,29.49,19,4,19,0.66
2012-12-5,46.1,42.1,39.4,43.2,40.1,37.5,94,92,89,30.17,29.82,15,3,15,0.08
2012-12-6,44.1,42.2,41.0,42.6,40.8,39.7,95,95,94,30.16,30.00,16,3,16,0.14
2012-12-7,45.2,41.9,37.1,43.2,40.0,35.2,95,93,90,30.12,29.92,16,3,16,0.22
2012-12-8,42.8,38.9,35.8,40.7,37.0,33.9,95,93,91,30.32,30.11,6,1,6,0.00
2012-12-9,43.4,40.9,38.0,42.1,39.5,36.4,96,95,94,30.34,30.23,7,1,7,0.12
2012-12-10,43.9,43.0,42.1,42.8,41.9,41.0,96,96,95,30.39,30.06,7,1,7,0.02
2012-12-11,45.0,42.8,41.8,43.4,41.4,40.6,96,95,93,30.06,29.52,12,3,12,0.10
2012-12-12,43.7,42.0,41.0,42.4,40.7,39.7,95,95,95,29.99,29.58,8,1,8,0.07
2012-12-13,43.4,41.3,40.3,41.5,39.8,39.0,96,94,91,30.01,29.77,8,2,8,0.18
2012-12-14,43.0,39.5,34.9,41.3,37.7,33.0,96,94,90,29.91,29.74,8,2,8,0.20
2012-12-15,39.2,37.2,33.3,37.6,35.5,31.4,95,94,91,29.89,29.51,16,3,16,0.25
2012-12-16,44.1,39.1,36.5,43.0,37.8,35.1,96,95,94,29.72,28.93,14,3,14,1.12
2012-12-17,44.8,39.9,35.1,43.5,37.4,32.7,96,91,84,29.86,28.89,23,7,23,0.11
2012-12-18,38.0,35.6,33.8,36.4,33.9,32.2,95,94,92,29.95,29.83,13,4,13,0.15
2012-12-19,42.7,38.9,35.3,40.2,37.3,33.4,95,94,91,29.92,29.51,19,3,19,0.70
2012-12-20,43.9,39.5,33.1,42.6,38.0,31.3,96,94,93,29.79,29.47,17,3,17,0.62
2012-12-21,42.7,37.3,32.4,41.6,36.0,30.9,96,95,93,29.79,29.63,6,1,6,0.04
2012-12-22,44.6,41.3,39.2,43.2,39.5,37.5,96,94,89,29.71,29.47,15,3,15,0.10
2012-12-23,43.0,40.7,38.9,41.4,38.9,36.7,95,93,91,29.79,29.59,10,2,10,0.26
2012-12-24,41.9,39.8,38.5,40.6,38.3,36.9,96,95,94,30.13,29.79,7,1,7,0.04
2012-12-25,40.0,38.2,35.8,38.4,36.9,34.3,96,95,95,30.02,29.63,5,1,5,0.52
2012-12-26,44.1,41.0,38.5,43.0,39.8,37.2,96,95,95,29.88,29.66,14,2,14,0.17
2012-12-27,44.6,41.1,38.2,43.3,39.8,36.5,96,95,94,30.12,29.88,8,2,9,0.02
2012-12-28,43.7,39.9,37.1,41.7,38.4,35.7,96,94,93,30.12,30.07,4,1,4,0.00
2012-12-29,41.8,39.7,37.3,40.2,38.3,35.6,96,95,93,30.19,30.10,5,1,5,0.06
2012-12-30,40.0,37.1,32.6,38.6,35.6,30.8,96,94,93,30.28,30.18,4,1,4,0.00
2012-12-31,39.1,36.2,33.5,37.4,34.7,31.9,96,95,94,30.41,30.21,6,1,6,0.00
2013-1-1,39.8,36.2,32.0,37.4,34.2,30.2,95,93,89,30.45,30.30,9,2,9,0.01